Time;durP1;ratioP1;P1;durP2;ratioP2;P2;SDS_P1;SDS_P2;PMS_P1;PMS_P2;Temp;Humidity;BMP_temperature;BMP_pressure;BME280_temperature;BME280_humidity;BME280_pressure;Samples;Min_cycle;Max_cycle;Signal;HPM_P1;HPM_P2
2022/09/19 00:01:17;;;;;;;7.32;1.42;;;;;;;7.33;100.00;98385.47;8394485;28;20041;-85
2022/09/19 00:05:18;;;;;;;6.88;1.50;;;;;;;7.29;100.00;98392.56;8391508;28;20653;-84
2022/09/19 00:09:21;;;;;;;4.43;1.80;;;;;;;7.24;100.00;98390.00;8392109;28;20056;-84
2022/09/19 00:13:22;;;;;;;5.80;1.67;;;;;;;7.19;100.00;98386.31;8393339;28;20037;-84
2022/09/19 00:17:23;;;;;;;6.70;2.00;;;;;;;7.15;100.00;98390.69;8393096;28;20470;-83
2022/09/19 00:21:28;;;;;;;4.88;1.80;;;;;;;7.09;100.00;98386.53;8393963;28;20197;-84
2022/09/19 00:25:29;;;;;;;2.97;1.60;;;;;;;7.04;100.00;98383.97;8393508;28;20040;-84
2022/09/19 00:29:32;;;;;;;3.97;1.60;;;;;;;6.99;100.00;98386.75;8393660;28;20071;-83
2022/09/19 00:33:33;;;;;;;6.30;2.28;;;;;;;6.98;100.00;98385.16;8389669;28;20044;-85
2022/09/19 00:37:34;;;;;;;3.10;1.80;;;;;;;6.94;100.00;98389.56;8394102;28;20417;-83
2022/09/19 00:41:36;;;;;;;4.45;2.00;;;;;;;6.97;100.00;98383.59;8393642;28;20040;-84
2022/09/19 00:45:37;;;;;;;4.18;2.30;;;;;;;7.03;100.00;98382.38;8392420;28;20049;-83
2022/09/19 00:49:41;;;;;;;3.22;2.25;;;;;;;7.08;100.00;98379.59;8393735;28;20075;-85
2022/09/19 00:53:43;;;;;;;3.70;2.20;;;;;;;7.17;100.00;98375.09;8386631;28;20048;-85
2022/09/19 00:57:50;;;;;;;3.85;2.50;;;;;;;7.24;100.00;98376.56;8393538;28;20517;-83
2022/09/19 01:01:54;;;;;;;3.83;2.50;;;;;;;7.29;100.00;98373.75;8392692;28;20041;-83
2022/09/19 01:06:23;;;;;;;6.07;2.67;;;;;;;7.33;100.00;98374.72;8390926;28;20535;-83
2022/09/19 01:10:50;;;;;;;4.10;2.20;;;;;;;7.32;100.00;98373.94;8390664;28;20044;-83
2022/09/19 01:15:09;;;;;;;4.78;2.20;;;;;;;7.37;100.00;98375.69;8372881;28;20518;-86
2022/09/19 01:19:47;;;;;;;4.55;2.08;;;;;;;7.43;100.00;98379.84;8392178;28;20465;-85
2022/09/19 01:24:00;;;;;;;3.97;2.08;;;;;;;7.42;100.00;98378.25;8391158;28;20098;-84
2022/09/19 01:28:11;;;;;;;4.68;2.20;;;;;;;7.44;100.00;98376.06;8392782;28;20151;-84
2022/09/19 01:32:18;;;;;;;5.88;2.10;;;;;;;7.44;100.00;98381.44;8396358;28;20045;-84
2022/09/19 01:36:22;;;;;;;4.00;2.10;;;;;;;7.44;100.00;98378.75;8397797;28;20062;-84
2022/09/19 01:40:23;;;;;;;9.27;2.72;;;;;;;7.45;100.00;98377.66;8395021;28;20053;-84
2022/09/19 01:44:26;;;;;;;6.65;2.30;;;;;;;7.49;100.00;98384.00;8394643;28;20053;-83
2022/09/19 01:48:45;;;;;;;8.73;2.80;;;;;;;7.49;100.00;98384.00;8397635;28;20048;-84
2022/09/19 01:53:05;;;;;;;;;;;;;;;7.49;100.00;98373.25;8361335;28;20045;-84
2022/09/19 01:57:31;;;;;;;5.57;2.20;;;;;;;7.49;100.00;98382.13;8358236;28;20350;-83
2022/09/19 02:01:45;;;;;;;5.97;2.30;;;;;;;7.45;100.00;98386.53;8326800;28;20482;-83
2022/09/19 02:06:00;;;;;;;9.27;2.88;;;;;;;7.48;100.00;98382.41;8342362;28;20045;-84
2022/09/19 02:10:06;;;;;;;6.13;2.63;;;;;;;7.54;100.00;98381.19;8343647;28;20043;-83
2022/09/19 02:14:16;;;;;;;6.28;3.58;;;;;;;7.56;100.00;98384.38;8359461;28;20485;-82
2022/09/19 02:18:30;;;;;;;4.68;3.15;;;;;;;7.57;100.00;98402.06;8359480;28;20049;-83
2022/09/19 02:22:43;;;;;;;6.85;3.00;;;;;;;7.54;100.00;98387.38;8373985;28;20044;-83
2022/09/19 02:26:48;;;;;;;9.95;3.58;;;;;;;7.58;100.00;98387.53;8395634;28;20460;-83
2022/09/19 02:30:49;;;;;;;6.13;3.33;;;;;;;7.58;100.00;98387.53;8393266;28;20075;-84
2022/09/19 02:34:53;;;;;;;6.03;2.95;;;;;;;7.60;100.00;98385.34;8397585;28;20500;-83
2022/09/19 02:39:26;;;;;;;4.90;3.03;;;;;;;7.57;100.00;98394.00;8395968;28;20044;-84
2022/09/19 02:43:46;;;;;;;6.38;3.25;;;;;;;7.55;100.00;98382.78;8260776;28;20058;-84
2022/09/19 02:47:58;;;;;;;8.68;3.15;;;;;;;7.53;100.00;98393.84;8243807;28;20053;-83
2022/09/19 02:52:04;;;;;;;6.72;3.63;;;;;;;7.57;100.00;98394.00;8261077;28;20058;-82
2022/09/19 02:56:05;;;;;;;5.97;3.17;;;;;;;7.60;100.00;98396.09;8244832;28;20273;-84
2022/09/19 03:00:07;;;;;;;6.03;3.40;;;;;;;7.63;100.00;98400.84;8260541;28;20061;-82
2022/09/19 03:04:14;;;;;;;6.20;3.83;;;;;;;7.70;100.00;98406.59;8261133;28;20128;-83
2022/09/19 03:08:16;;;;;;;11.73;3.20;;;;;;;7.70;100.00;98417.34;8214010;28;20054;-83
2022/09/19 03:12:22;;;;;;;5.13;3.03;;;;;;;7.70;100.00;98417.34;8243971;28;20058;-85
2022/09/19 03:16:26;;;;;;;7.35;3.30;;;;;;;7.71;100.00;98408.19;8243512;28;20050;-82
2022/09/19 03:20:27;;;;;;;4.25;2.97;;;;;;;7.72;100.00;98415.13;8363883;28;20045;-83
2022/09/19 03:24:28;;;;;;;10.60;3.35;;;;;;;7.75;100.00;98422.59;8395642;28;20052;-83
2022/09/19 03:28:29;;;;;;;3.83;2.67;;;;;;;7.75;100.00;98414.53;8393317;28;20056;-82
2022/09/19 03:32:30;;;;;;;13.95;3.85;;;;;;;7.73;100.00;98422.09;8394856;28;20409;-84
2022/09/19 03:36:33;;;;;;;4.93;3.30;;;;;;;7.76;100.00;98418.81;8395365;28;20139;-82
2022/09/19 03:40:34;;;;;;;5.18;3.55;;;;;;;7.78;100.00;98419.28;8395024;28;20048;-81
2022/09/19 03:44:35;;;;;;;7.97;3.42;;;;;;;7.83;100.00;98416.47;8393042;28;20044;-81
2022/09/19 03:48:38;;;;;;;7.22;3.45;;;;;;;7.86;100.00;98426.63;8393959;28;20044;-83
2022/09/19 03:52:39;;;;;;;3.83;2.95;;;;;;;7.80;100.00;98422.47;8387219;28;20049;-86
2022/09/19 03:56:40;;;;;;;5.00;3.20;;;;;;;7.77;100.00;98431.16;8387744;28;20478;-82
2022/09/19 04:00:40;;;;;;;6.30;3.05;;;;;;;7.80;100.00;98435.91;8369680;28;20045;-83
2022/09/19 04:04:42;;;;;;;6.35;3.17;;;;;;;7.82;100.00;98436.41;8375715;28;20070;-82
2022/09/19 04:08:42;;;;;;;6.45;3.38;;;;;;;7.77;100.00;98439.22;8395960;28;20076;-83
2022/09/19 04:12:43;;;;;;;3.72;2.97;;;;;;;7.76;100.00;98443.00;8376838;28;20045;-81
2022/09/19 04:16:44;;;;;;;5.03;3.30;;;;;;;7.81;100.00;98445.56;8395766;28;20139;-81
2022/09/19 04:20:46;;;;;;;7.05;3.03;;;;;;;7.81;100.00;98445.56;8395062;28;20048;-80
2022/09/19 04:24:48;;;;;;;6.55;3.40;;;;;;;7.83;100.00;98447.94;8393659;28;20039;-82
2022/09/19 04:28:49;;;;;;;6.50;3.90;;;;;;;7.82;100.00;98447.16;8374601;28;20068;-81
2022/09/19 04:32:51;;;;;;;7.60;3.33;;;;;;;7.84;100.00;98461.06;8363075;28;20095;-81
2022/09/19 04:36:52;;;;;;;6.65;3.60;;;;;;;7.87;100.00;98459.69;8372958;28;20516;-81
2022/09/19 04:40:56;;;;;;;10.90;4.25;;;;;;;7.85;100.00;98462.66;8372748;28;20045;-81
2022/09/19 04:44:58;;;;;;;6.18;3.47;;;;;;;7.84;100.00;98471.81;8371383;28;20052;-82
2022/09/19 04:48:59;;;;;;;11.70;3.55;;;;;;;7.84;100.00;98471.81;8382305;28;20043;-82
2022/09/19 04:53:01;;;;;;;8.20;3.75;;;;;;;7.83;100.00;98475.63;8392097;28;20390;-83
2022/09/19 04:57:05;;;;;;;11.25;3.70;;;;;;;7.85;100.00;98478.81;8390887;28;20140;-82
2022/09/19 05:01:07;;;;;;;9.95;3.80;;;;;;;7.87;100.00;98482.00;8351299;28;20048;-84
2022/09/19 05:05:08;;;;;;;3.78;2.80;;;;;;;7.81;100.00;98477.81;8394442;28;20454;-84
2022/09/19 05:09:11;;;;;;;3.55;2.47;;;;;;;7.78;100.00;98483.78;8394887;28;20049;-83
2022/09/19 05:13:13;;;;;;;7.13;3.10;;;;;;;7.84;100.00;98492.53;8399907;28;20102;-83
2022/09/19 05:17:14;;;;;;;4.82;3.17;;;;;;;7.84;100.00;98498.72;8400551;28;20060;-82
2022/09/19 05:21:16;;;;;;;13.70;2.88;;;;;;;7.85;100.00;98497.63;8400294;28;20044;-84
2022/09/19 05:25:18;;;;;;;4.57;2.58;;;;;;;7.88;100.00;98501.56;8399928;28;20048;-82
2022/09/19 05:29:18;;;;;;;8.40;2.95;;;;;;;7.93;100.00;98496.88;8377800;28;20082;-81
2022/09/19 05:33:25;;;;;;;3.97;2.83;;;;;;;7.95;100.00;98510.81;8388606;28;20048;-83
2022/09/19 05:37:26;;;;;;;5.15;3.03;;;;;;;7.96;100.00;98509.72;8386361;28;20103;-84
2022/09/19 05:41:27;;;;;;;7.07;3.25;;;;;;;7.95;100.00;98518.88;8373628;28;20463;-83
2022/09/19 05:45:28;;;;;;;6.95;3.05;;;;;;;7.89;100.00;98525.47;8374919;28;20099;-84
2022/09/19 05:49:30;;;;;;;4.10;2.78;;;;;;;7.86;100.00;98523.41;8383944;28;20033;-82
2022/09/19 05:57:56;;;;;;;8.90;2.80;;;;;;;7.88;100.00;98531.94;8378952;28;20053;-82
2022/09/19 06:01:58;;;;;;;5.22;2.75;;;;;;;7.93;100.00;98529.13;8399320;28;20049;-84
2022/09/19 06:06:00;;;;;;;5.93;2.47;;;;;;;7.95;100.00;98537.69;8393434;28;20048;-83
2022/09/19 06:10:00;;;;;;;6.88;2.33;;;;;;;7.98;100.00;98542.47;8395875;28;20115;-82
2022/09/19 06:14:13;;;;;;;9.82;2.65;;;;;;;7.99;100.00;98544.06;8395730;28;20143;-83
2022/09/19 06:18:14;;;;;;;5.07;2.65;;;;;;;7.96;100.00;98554.63;8399241;28;20048;-84
2022/09/19 06:22:15;;;;;;;4.85;2.47;;;;;;;8.02;100.00;98559.59;8380546;28;20086;-82
2022/09/19 06:26:20;;;;;;;8.35;2.92;;;;;;;8.06;100.00;98557.88;8398533;28;20383;-82
2022/09/19 06:30:23;;;;;;;3.58;2.97;;;;;;;8.14;100.00;98560.94;8380318;28;20048;-81
2022/09/19 06:34:24;;;;;;;7.38;2.53;;;;;;;8.26;100.00;98563.84;8399364;28;20474;-81
2022/09/19 06:38:30;;;;;;;4.75;2.75;;;;;;;8.33;100.00;98564.25;8398720;28;20064;-81
2022/09/19 06:42:31;;;;;;;5.53;3.00;;;;;;;8.29;100.00;98564.06;8397319;28;20068;-81
2022/09/19 06:46:36;;;;;;;7.78;2.30;;;;;;;8.19;100.00;98568.88;8363454;28;20073;-80
2022/09/19 06:50:37;;;;;;;6.38;2.40;;;;;;;8.22;100.00;98573.66;8364103;28;20044;-83
2022/09/19 06:54:39;;;;;;;4.13;2.85;;;;;;;8.23;100.00;98581.41;8398498;28;20044;-81
2022/09/19 06:58:39;;;;;;;6.35;3.25;;;;;;;8.27;100.00;98586.97;8397988;28;20056;-82
2022/09/19 07:02:41;;;;;;;7.32;3.10;;;;;;;8.43;100.00;98585.53;8402107;28;20075;-84
2022/09/19 07:06:43;;;;;;;4.18;3.05;;;;;;;8.47;100.00;98589.19;8411382;28;20048;-84
2022/09/19 07:10:44;;;;;;;7.13;3.33;;;;;;;8.56;100.00;98595.44;8389067;28;20051;-84
2022/09/19 07:14:45;;;;;;;3.80;3.08;;;;;;;8.63;99.92;98601.16;8431561;28;20067;-83
2022/09/19 07:18:46;;;;;;;4.85;3.30;;;;;;;8.72;99.70;98599.34;8417199;28;20057;-82
2022/09/19 07:22:57;;;;;;;8.52;3.72;;;;;;;8.78;99.30;98608.84;8431284;28;20481;-83
2022/09/19 07:26:58;;;;;;;7.90;3.20;;;;;;;8.78;99.15;98613.44;8395041;28;20052;-83
2022/09/19 07:30:59;;;;;;;9.70;3.50;;;;;;;8.81;98.94;98620.91;8430630;28;20048;-81
2022/09/19 07:35:00;;;;;;;8.77;2.97;;;;;;;8.93;98.48;98625.75;8395589;28;20063;-83
2022/09/19 07:39:01;;;;;;;6.60;3.22;;;;;;;9.03;97.61;98625.47;8430908;28;20131;-84
2022/09/19 07:43:04;;;;;;;5.53;2.70;;;;;;;9.18;97.08;98616.97;8430618;28;20052;-84
2022/09/19 07:51:26;;;;;;;9.45;3.78;;;;;;;9.05;96.99;98629.41;8427042;28;20037;-82
2022/09/19 07:55:28;;;;;;;7.53;4.07;;;;;;;9.04;96.87;98637.84;8419892;28;20048;-83
2022/09/19 07:59:29;;;;;;;7.70;3.72;;;;;;;9.10;96.53;98641.97;8430323;28;20760;-85
2022/09/19 08:03:30;;;;;;;7.38;3.20;;;;;;;9.05;96.18;98640.19;8410137;28;20044;-82
2022/09/19 08:07:31;;;;;;;6.88;3.60;;;;;;;9.13;96.24;98641.34;8394448;28;20408;-83
2022/09/19 08:11:38;;;;;;;4.82;2.33;;;;;;;9.27;95.32;98652.81;8417622;28;20051;-82
2022/09/19 08:15:39;;;;;;;3.63;2.40;;;;;;;9.40;94.58;98651.94;8424697;28;20060;-84
2022/09/19 08:19:43;;;;;;;4.53;2.50;;;;;;;9.57;94.36;98660.06;8418730;28;20056;-81
2022/09/19 08:23:44;;;;;;;13.05;4.20;;;;;;;9.83;93.64;98659.34;8391742;28;20032;-81
2022/09/19 08:27:45;;;;;;;15.93;9.65;;;;;;;9.99;92.52;98658.56;8393860;28;20262;-84
2022/09/19 08:31:46;;;;;;;8.50;3.38;;;;;;;9.92;91.77;98673.66;8393750;28;20470;-81
2022/09/19 08:35:47;;;;;;;5.30;3.13;;;;;;;9.65;91.50;98664.69;8394431;28;20140;-82
2022/09/19 08:44:20;;;;;;;6.93;4.30;;;;;;;9.63;92.65;98677.69;8395367;28;20047;-81
2022/09/19 08:48:28;;;;;;;9.00;4.78;;;;;;;9.79;91.36;98685.34;8391374;28;20053;-80
2022/09/19 08:52:45;;;;;;;5.95;3.00;;;;;;;9.93;90.76;98680.63;8398971;28;20036;-81
2022/09/19 08:56:46;;;;;;;9.73;4.18;;;;;;;10.09;90.48;98684.47;8390876;28;20124;-81
2022/09/19 09:00:48;;;;;;;8.88;4.18;;;;;;;10.28;90.43;98695.78;8400328;28;20051;-81
2022/09/19 09:04:49;;;;;;;7.05;3.63;;;;;;;10.43;89.29;98684.50;8420032;28;20052;-82
2022/09/19 09:09:12;;;;;;;6.90;3.90;;;;;;;10.50;88.90;98695.63;8409513;28;20101;-81
2022/09/19 09:13:16;;;;;;;6.55;3.50;;;;;;;10.44;88.91;98691.50;8428820;28;20059;-82
2022/09/19 09:17:33;;;;;;;6.40;3.60;;;;;;;10.28;89.21;98698.47;8425842;28;20100;-81
2022/09/19 09:22:18;;;;;;;9.63;3.10;;;;;;;10.18;89.13;98704.19;8408153;28;20402;-81
2022/09/19 09:26:23;;;;;;;11.55;4.35;;;;;;;10.06;89.77;98706.66;8268350;28;20393;-80
2022/09/19 09:30:24;;;;;;;9.93;3.92;;;;;;;10.04;89.80;98717.00;8292046;28;20111;-81
2022/09/19 09:34:29;;;;;;;13.52;3.80;;;;;;;10.22;89.47;98721.31;8275858;28;20104;-80
2022/09/19 09:38:47;;;;;;;6.85;3.40;;;;;;;10.47;88.82;98717.84;8259430;28;20053;-83
2022/09/19 09:43:02;;;;;;;8.95;3.63;;;;;;;10.53;88.57;98713.09;8259510;28;20187;-80
2022/09/19 09:47:24;;;;;;;5.78;3.83;;;;;;;10.66;87.90;98725.66;8235810;28;20066;-81
2022/09/19 09:51:39;;;;;;;12.15;4.38;;;;;;;10.76;87.98;98719.13;8263710;28;20076;-81
2022/09/19 09:56:32;;;;;;;6.85;3.53;;;;;;;10.76;87.99;98719.13;8265179;28;20064;-80
2022/09/19 10:04:58;;;;;;;6.22;3.55;;;;;;;10.66;87.85;98720.25;8262233;28;20050;-80
2022/09/19 10:09:01;;;;;;;6.43;3.65;;;;;;;10.56;88.67;98726.78;8288695;28;20180;-81
2022/09/19 10:13:27;;;;;;;8.25;3.80;;;;;;;10.63;89.33;98739.00;8329928;28;20088;-81
2022/09/19 10:17:33;;;;;;;22.63;4.20;;;;;;;10.67;89.40;98737.25;8280930;28;20107;-82
2022/09/19 10:21:38;;;;;;;8.13;4.40;;;;;;;10.73;89.70;98746.78;8313615;28;20399;-81
2022/09/19 10:25:39;;;;;;;7.55;2.83;;;;;;;10.71;90.11;98751.69;8329457;28;20053;-78
2022/09/19 10:30:01;;;;;;;9.75;3.92;;;;;;;10.67;90.69;98748.06;8329321;28;20064;-80
2022/09/19 10:34:06;;;;;;;5.13;3.33;;;;;;;10.75;91.01;98749.94;8374902;28;20052;-80
2022/09/19 10:38:15;;;;;;;6.80;3.25;;;;;;;10.77;91.27;98751.22;8419454;28;20047;-81
2022/09/19 10:42:30;;;;;;;8.88;3.15;;;;;;;10.81;91.38;98754.09;8432692;28;20063;-80
2022/09/19 10:46:54;;;;;;;9.38;3.53;;;;;;;10.79;91.66;98756.31;8418167;28;20048;-82
2022/09/19 10:50:59;;;;;;;13.85;2.90;;;;;;;10.64;92.25;98764.88;8414717;28;20083;-80
2022/09/19 10:55:01;;;;;;;7.70;3.03;;;;;;;10.73;93.04;98755.69;8427799;28;20048;-83
2022/09/19 10:59:18;;;;;;;6.75;2.60;;;;;;;10.91;92.51;98764.56;8412592;28;20048;-81
2022/09/19 11:03:58;;;;;;;6.20;2.83;;;;;;;10.95;93.14;98760.09;8411608;28;20136;-81
2022/09/19 11:08:00;;;;;;;6.10;2.30;;;;;;;10.87;93.27;98763.63;8328293;28;20431;-80
2022/09/19 11:12:05;;;;;;;8.52;2.50;;;;;;;10.84;93.32;98753.47;8311316;28;20053;-82
2022/09/19 11:16:19;;;;;;;6.85;2.38;;;;;;;10.71;93.91;98757.91;8311458;28;20057;-81
2022/09/19 11:20:57;;;;;;;4.40;2.25;;;;;;;10.67;94.32;98765.06;8327808;28;20049;-83
2022/09/19 11:24:58;;;;;;;6.88;2.70;;;;;;;10.54;95.13;98760.59;8294837;28;20546;-81
2022/09/19 11:29:16;;;;;;;6.70;2.95;;;;;;;10.50;95.88;98771.25;8294472;28;20064;-82
2022/09/19 11:33:38;;;;;;;6.37;3.13;;;;;;;10.46;96.11;98764.88;8293950;28;20054;-80
2022/09/19 11:38:08;;;;;;;6.85;3.22;;;;;;;10.48;96.27;98768.03;8294286;28;20518;-79
2022/09/19 11:42:30;;;;;;;6.82;4.07;;;;;;;10.53;96.37;98762.50;8311923;28;20139;-81
2022/09/19 11:46:52;;;;;;;7.07;4.10;;;;;;;10.56;96.97;98764.56;8375408;28;20055;-81
2022/09/19 11:51:06;;;;;;;5.97;3.97;;;;;;;10.61;97.25;98757.44;8370225;28;20049;-80
2022/09/19 11:55:13;;;;;;;73.78;37.22;;;;;;;10.55;97.57;98756.78;8283180;28;20046;-79
2022/09/19 11:59:22;;;;;;;18.08;10.90;;;;;;;10.47;98.01;98766.44;8276571;28;20050;-82
2022/09/19 12:03:32;;;;;;;20.23;10.98;;;;;;;10.48;97.91;98762.66;8341297;28;20049;-81
2022/09/19 12:08:17;;;;;;;20.63;11.23;;;;;;;10.51;98.02;98762.03;8342752;28;20049;-79
2022/09/19 12:12:24;;;;;;;42.70;21.85;;;;;;;10.52;98.49;98774.41;8333545;28;20894;-81
2022/09/19 12:16:37;;;;;;;64.00;26.05;;;;;;;10.50;98.50;98765.84;8342878;28;20068;-80
2022/09/19 12:20:45;;;;;;;28.20;13.07;;;;;;;10.45;98.68;98760.59;8339375;28;20046;-81
2022/09/19 12:25:18;;;;;;;9.93;5.97;;;;;;;10.58;98.60;98767.72;8340977;28;20049;-80
2022/09/19 12:29:41;;;;;;;7.97;3.38;;;;;;;10.63;98.22;98763.31;8374461;28;20203;-80
2022/09/19 12:33:55;;;;;;;7.43;4.95;;;;;;;10.53;98.82;98764.38;8373502;28;20422;-81
2022/09/19 12:38:07;;;;;;;5.10;4.18;;;;;;;10.56;98.83;98769.97;8360840;28;20102;-81
2022/09/19 12:42:18;;;;;;;9.13;5.70;;;;;;;10.52;99.10;98769.00;8364238;28;20045;-80
2022/09/19 12:46:38;;;;;;;8.63;5.82;;;;;;;10.54;99.14;98766.78;8369072;28;20037;-79
2022/09/19 12:50:42;;;;;;;6.55;4.20;;;;;;;10.60;99.32;98764.72;8375923;28;20048;-80
2022/09/19 12:55:03;;;;;;;17.38;9.65;;;;;;;10.67;99.33;98769.66;8370752;28;20048;-79
2022/09/19 12:59:19;;;;;;;43.35;24.92;;;;;;;10.73;99.22;98768.41;8404727;28;20181;-79
2022/09/19 13:03:26;;;;;;;12.00;6.68;;;;;;;10.82;99.00;98766.47;8411871;28;20728;-81
2022/09/19 13:07:42;;;;;;;7.40;4.70;;;;;;;10.89;98.94;98772.22;8413149;28;20040;-81
2022/09/19 13:11:59;;;;;;;8.68;6.05;;;;;;;10.94;99.02;98774.75;8413306;28;20139;-82
2022/09/19 13:16:13;;;;;;;7.47;5.38;;;;;;;10.85;99.09;98782.03;8427636;28;20105;-82
2022/09/19 13:24:44;;;;;;;4.47;3.42;;;;;;;11.05;99.13;98781.41;8402312;28;20095;-81
2022/09/19 13:28:48;;;;;;;5.78;2.90;;;;;;;11.10;98.90;98785.88;8413562;28;20060;-81
2022/09/19 13:32:55;;;;;;;4.55;3.05;;;;;;;11.06;98.57;98783.00;8386920;28;20097;-81
2022/09/19 13:36:58;;;;;;;4.50;2.22;;;;;;;10.95;98.79;98797.94;8435007;28;20127;-82
2022/09/19 13:41:04;;;;;;;3.65;2.42;;;;;;;10.95;99.32;98798.72;8420571;28;20485;-83
2022/09/19 13:45:43;;;;;;;3.83;2.78;;;;;;;10.96;99.27;98799.53;8430148;28;20048;-82
2022/09/19 13:50:20;;;;;;;4.53;2.70;;;;;;;11.08;98.75;98797.00;8423329;28;20139;-82
2022/09/19 13:54:24;;;;;;;3.00;2.10;;;;;;;11.11;98.72;98807.16;8414022;28;20049;-81
2022/09/19 13:58:28;;;;;;;4.80;3.08;;;;;;;11.14;98.33;98811.94;8420733;28;20523;-82
2022/09/19 14:02:35;;;;;;;3.53;2.90;;;;;;;11.15;98.29;98812.72;8406752;28;20531;-81
2022/09/19 14:06:37;;;;;;;3.78;2.63;;;;;;;11.15;98.36;98808.13;8420377;28;20569;-81
2022/09/19 14:10:51;;;;;;;4.22;2.60;;;;;;;11.18;98.50;98817.47;8413807;28;20056;-82
2022/09/19 14:14:52;;;;;;;4.30;3.15;;;;;;;11.19;98.38;98814.47;8411834;28;20049;-82
2022/09/19 14:18:54;;;;;;;4.32;2.70;;;;;;;11.20;98.48;98816.06;8414608;28;20051;-82
2022/09/19 14:22:55;;;;;;;6.45;3.00;;;;;;;11.20;98.31;98821.47;8397349;28;20116;-82
2022/09/19 14:27:23;;;;;;;4.38;2.95;;;;;;;11.15;98.66;98818.94;8397607;28;20497;-83
2022/09/19 14:31:46;;;;;;;7.32;2.85;;;;;;;11.09;98.64;98820.19;8398530;28;20382;-83
2022/09/19 14:36:31;;;;;;;6.82;3.95;;;;;;;11.06;98.62;98820.81;8398570;28;20106;-82
2022/09/19 14:40:40;;;;;;;6.30;2.78;;;;;;;11.08;98.54;98818.59;8298700;28;20072;-82
2022/09/19 14:44:56;;;;;;;7.10;3.47;;;;;;;11.11;98.86;98811.75;8325591;28;20042;-82
2022/09/19 14:49:06;;;;;;;5.28;3.40;;;;;;;11.05;98.88;98816.53;8326232;28;20434;-83
2022/09/19 14:53:13;;;;;;;5.43;3.28;;;;;;;11.06;98.99;98815.41;8321336;28;20042;-82
2022/09/19 14:57:22;;;;;;;6.15;3.83;;;;;;;11.05;99.40;98819.22;8309369;28;20419;-83
2022/09/19 15:01:29;;;;;;;7.35;4.35;;;;;;;11.20;98.87;98821.47;8327852;28;20064;-83
2022/09/19 15:05:32;;;;;;;8.40;3.85;;;;;;;11.30;98.89;98826.53;8294479;28;20038;-82
2022/09/19 15:09:37;;;;;;;7.18;4.07;;;;;;;11.37;98.54;98826.03;8318364;28;20061;-83
2022/09/19 15:13:45;;;;;;;6.00;4.05;;;;;;;11.38;98.62;98822.22;8326358;28;20057;-82
2022/09/19 15:17:47;;;;;;;15.05;3.58;;;;;;;11.47;98.14;98830.34;8401194;28;20168;-82
2022/09/19 15:21:48;;;;;;;4.43;3.70;;;;;;;11.47;98.17;98824.94;8417830;28;20057;-81
2022/09/19 15:25:56;;;;;;;4.20;3.03;;;;;;;11.51;98.07;98831.28;8414788;28;20051;-82
2022/09/19 15:30:17;;;;;;;4.73;3.33;;;;;;;11.53;98.34;98831.75;8416081;28;20128;-83
2022/09/19 15:34:19;;;;;;;4.68;3.42;;;;;;;11.59;98.11;98833.16;8415827;28;20040;-82
2022/09/19 15:38:23;;;;;;;6.40;3.25;;;;;;;11.63;97.95;98828.72;8418814;28;20048;-82
2022/09/19 15:42:24;;;;;;;5.55;2.95;;;;;;;11.66;97.82;98839.69;8414193;28;20050;-83
2022/09/19 15:46:25;;;;;;;6.97;3.50;;;;;;;11.58;97.64;98837.00;8412641;28;20068;-82
2022/09/19 15:50:32;;;;;;;4.80;3.45;;;;;;;11.57;97.83;98846.22;8436356;28;20055;-81
2022/09/19 15:54:38;;;;;;;5.60;3.25;;;;;;;11.50;97.89;98845.91;8416856;28;20083;-80
2022/09/19 15:58:51;;;;;;;3.95;3.08;;;;;;;11.50;97.97;98854.03;8416380;28;20047;-81
2022/09/19 16:03:05;;;;;;;5.95;3.20;;;;;;;11.46;98.48;98850.38;8386374;28;20152;-81
2022/09/19 16:11:48;;;;;;;7.70;3.78;;;;;;;11.41;98.74;98860.25;8416592;28;20040;-81
2022/09/19 16:15:50;;;;;;;5.05;3.67;;;;;;;11.43;98.76;98852.59;8394369;28;20137;-81
2022/09/19 16:19:53;;;;;;;10.70;3.92;;;;;;;11.43;98.73;98858.00;8395100;28;20481;-80
2022/09/19 16:23:55;;;;;;;8.30;4.13;;;;;;;11.40;98.99;98861.38;8392571;28;20049;-81
2022/09/19 16:27:56;;;;;;;6.85;3.83;;;;;;;11.35;99.15;98861.53;8394701;28;20078;-81
2022/09/19 16:31:57;;;;;;;7.35;3.72;;;;;;;11.29;99.41;98862.00;8394943;28;20049;-81
2022/09/19 16:36:00;;;;;;;6.13;3.63;;;;;;;11.22;99.63;98873.28;8394884;28;20139;-80
2022/09/19 16:40:07;;;;;;;7.20;4.07;;;;;;;11.14;99.86;98876.78;8392005;28;20139;-80
2022/09/19 16:44:17;;;;;;;10.88;4.15;;;;;;;11.04;100.00;98893.31;8391242;28;20056;-80
2022/09/19 16:48:18;;;;;;;9.43;5.40;;;;;;;11.00;100.00;98897.75;8394490;28;20437;-81
2022/09/19 16:52:23;;;;;;;11.85;4.80;;;;;;;10.91;100.00;98896.94;8399667;28;20128;-81
2022/09/19 16:56:24;;;;;;;7.93;4.10;;;;;;;10.79;100.00;98896.75;8390242;28;20048;-81
2022/09/19 17:00:27;;;;;;;8.07;4.70;;;;;;;10.69;100.00;98907.84;8396140;28;20086;-80
2022/09/19 17:04:28;;;;;;;10.52;5.25;;;;;;;10.63;100.00;98914.53;8397346;28;20474;-80
2022/09/19 17:08:29;;;;;;;10.50;4.93;;;;;;;10.52;100.00;98912.09;8405747;28;20059;-81
2022/09/19 17:12:30;;;;;;;8.88;4.40;;;;;;;10.42;100.00;98908.88;8423302;28;20193;-80
2022/09/19 17:16:31;;;;;;;6.53;4.20;;;;;;;10.34;100.00;98918.56;8408582;28;20061;-80
2022/09/19 17:20:33;;;;;;;8.77;4.80;;;;;;;10.23;100.00;98917.22;8417926;28;20048;-80
2022/09/19 17:24:34;;;;;;;12.60;6.57;;;;;;;10.15;100.00;98920.66;8404952;28;20036;-80
2022/09/19 17:28:37;;;;;;;14.13;6.82;;;;;;;10.08;100.00;98920.31;8401039;28;20070;-80
2022/09/19 17:32:39;;;;;;;14.73;7.45;;;;;;;10.02;100.00;98921.53;8399955;28;20123;-80
2022/09/19 17:36:41;;;;;;;16.80;6.28;;;;;;;9.99;100.00;98932.97;8363088;28;20056;-80
2022/09/19 17:40:44;;;;;;;13.30;6.80;;;;;;;9.94;100.00;98941.94;8364144;28;20485;-80
2022/09/19 17:44:45;;;;;;;9.95;6.80;;;;;;;9.89;100.00;98938.56;8351711;28;20097;-80
2022/09/19 17:48:49;;;;;;;17.50;9.27;;;;;;;9.87;100.00;98951.59;8368184;28;20680;-80
2022/09/19 17:52:51;;;;;;;16.45;8.38;;;;;;;9.84;100.00;98946.81;8346201;28;20045;-80
2022/09/19 17:56:53;;;;;;;12.02;6.43;;;;;;;9.84;100.00;98954.88;8365826;28;20036;-80
2022/09/19 18:03:16;;;;;;;13.82;5.65;;;;;;;9.84;100.00;98962.97;8365731;28;20055;-79
2022/09/19 18:05:22;;;;;;;11.05;5.70;;;;;;;9.87;100.00;98957.00;8371956;28;20045;-80
2022/09/19 18:09:23;;;;;;;14.60;8.63;;;;;;;9.90;100.00;98967.16;8403672;28;20056;-79
2022/09/19 18:13:25;;;;;;;10.00;6.10;;;;;;;9.93;100.00;98961.97;8408078;28;20124;-81
2022/09/19 18:17:27;;;;;;;9.05;5.00;;;;;;;9.97;100.00;98970.22;8397624;28;20115;-80
2022/09/19 18:21:28;;;;;;;11.27;5.55;;;;;;;10.00;100.00;98977.69;8397829;28;20036;-79
2022/09/19 18:25:32;;;;;;;9.27;5.20;;;;;;;10.05;100.00;98980.25;8397786;28;20052;-80
2022/09/19 18:29:34;;;;;;;8.68;5.10;;;;;;;10.07;100.00;98986.16;8396198;28;20064;-80
2022/09/19 18:33:35;;;;;;;8.25;4.70;;;;;;;10.11;100.00;98997.91;8398106;28;20044;-78
2022/09/19 18:37:38;;;;;;;6.70;4.75;;;;;;;10.16;100.00;99008.63;8395000;28;20052;-80
2022/09/19 18:41:39;;;;;;;6.78;3.88;;;;;;;10.20;100.00;99030.41;8395745;28;20047;-81
2022/09/19 18:45:42;;;;;;;6.60;4.15;;;;;;;10.23;100.00;99035.97;8397336;28;20045;-79
2022/09/19 18:49:43;;;;;;;6.35;3.50;;;;;;;10.23;100.00;99030.59;8396651;28;20048;-81
2022/09/19 18:53:47;;;;;;;7.80;3.10;;;;;;;10.23;100.00;99044.06;8392692;28;20048;-80
2022/09/19 18:57:50;;;;;;;4.40;2.35;;;;;;;10.20;100.00;99052.81;8377416;28;20040;-80
2022/09/19 19:01:56;;;;;;;5.20;2.80;;;;;;;10.21;100.00;99065.16;8378475;28;20128;-80
2022/09/19 19:06:02;;;;;;;6.10;2.95;;;;;;;10.22;100.00;99055.97;8263279;28;20139;-79
2022/09/19 19:10:05;;;;;;;5.88;2.88;;;;;;;10.20;100.00;99050.09;8358914;28;20076;-78
2022/09/19 19:14:09;;;;;;;5.03;2.80;;;;;;;10.18;100.00;99049.59;8341940;28;20049;-78
2022/09/19 19:18:13;;;;;;;4.25;2.70;;;;;;;10.19;100.00;99045.81;8307038;28;20056;-78
2022/09/19 19:22:19;;;;;;;6.82;2.42;;;;;;;10.12;100.00;99040.00;8340617;28;20387;-78
2022/09/19 19:26:26;;;;;;;3.50;1.92;;;;;;;10.08;100.00;99039.03;8302959;28;20232;-78
2022/09/19 19:30:32;;;;;;;4.18;2.20;;;;;;;10.05;100.00;99034.22;8352833;28;20053;-78
2022/09/19 19:34:37;;;;;;;5.10;1.90;;;;;;;10.01;100.00;99033.25;8309617;28;20235;-78
2022/09/19 19:38:45;;;;;;;8.98;2.35;;;;;;;10.00;100.00;99037.03;8299637;28;20045;-79
2022/09/19 19:42:48;;;;;;;11.32;2.38;;;;;;;9.98;100.00;99044.66;8277306;28;20108;-79
2022/09/19 19:46:52;;;;;;;8.63;2.80;;;;;;;9.95;100.00;99047.97;8321353;28;20124;-79